logo tempoitalia

Diretta Meteo Iguazu Aerodrome, Argentinasabato 20 aprile ore 17:00

Mappa
Sereno 27 °C Sereno 24 Ore: T.min 15 T.max 27
Ponente Est/Nord-Est Km/h 7.4 Punto di rugiada: 18 °C Umidità: 57% Visibilità: 10 Km
Il sole sorge alle: 06:54 Il sole tramonta alle: 18:18
20 Aprile 2024 17:00 tempo osservato: Sereno Sereno 27 57 1015 vento: Nord E/NE 7.4
20 Aprile 2024 16:00 tempo osservato: Sereno Sereno 27 57 1015 vento: Nord N 5.5
20 Aprile 2024 15:00 tempo osservato: Sereno Sereno 27 57 1016 vento: Nord N 5.5
20 Aprile 2024 14:00 tempo osservato: Sereno Sereno 26 61 1017 vento: Nord N/NE 7.4
20 Aprile 2024 13:00 tempo osservato: Sereno Sereno 25 65 1017 vento: Nord N 11.1
20 Aprile 2024 12:00 tempo osservato: Sereno Sereno 25 65 1018 vento: Nord NE 11.1
20 Aprile 2024 11:00 tempo osservato: Sereno Sereno 23 68 1019 vento: Nord E 13
20 Aprile 2024 10:00 tempo osservato: Sereno Sereno 20 82 1019 vento: Nord E/NE 13
20 Aprile 2024 09:00 tempo osservato: Sereno Sereno 18 82 1019 vento: Nord E 13
20 Aprile 2024 08:00 tempo osservato: Sereno Sereno 16 82 1018 vento: Nord E 13
20 Aprile 2024 07:00 tempo osservato: Sereno Sereno 15 82 1017 vento: Nord E 9.3
20 Aprile 2024 06:00 tempo osservato: Sereno Sereno 15 82 1017 vento: Nord E 9.3
20 Aprile 2024 05:00 tempo osservato: Sereno Sereno 15 87 1016 vento: Nord E 11.1
20 Aprile 2024 04:00 tempo osservato: Sereno Sereno 16 82 1016 vento: Nord E 11.1
20 Aprile 2024 03:00 tempo osservato: Sereno Sereno 16 82 1016 vento: Nord E 13
20 Aprile 2024 02:00 tempo osservato: Sereno Sereno 16 82 1017 vento: Nord E 9.3
20 Aprile 2024 01:00 tempo osservato: Sereno Sereno 16 82 1017 vento: Nord E 9.3
20 Aprile 2024 00:00 tempo osservato: Sereno Sereno 18 77 1016 vento: Nord E 11.1
19 Aprile 2024 23:00 tempo osservato: Sereno Sereno 18 77 1017 vento: Nord E 9.3
19 Aprile 2024 22:00 tempo osservato: Sereno Sereno 17 82 1017 vento: Nord N 3.7
19 Aprile 2024 21:00 tempo osservato: Sereno Sereno 17 77 1016 vento: Nord N 3.7
19 Aprile 2024 20:00 tempo osservato: Sereno Sereno 18 77 1016 vento: Nord N 1.8
19 Aprile 2024 19:00 tempo osservato: Sereno Sereno 19 72 1015 vento: Nord N 1.8
19 Aprile 2024 18:00 tempo osservato: Sereno Sereno 22 60 1015 vento: Nord N 5.5